Time;durP1;ratioP1;P1;durP2;ratioP2;P2;SDS_P1;SDS_P2;PMS_P1;PMS_P2;Temp;Humidity;BMP_temperature;BMP_pressure;BME280_temperature;BME280_humidity;BME280_pressure;Samples;Min_cycle;Max_cycle;Signal;HPM_P1;HPM_P2
2022/02/22 00:01:30;;;;;;;4.17;1.60;;;8.90;99.90;;;;;;5115187;28;20208;-62
2022/02/22 00:03:57;;;;;;;7.80;2.03;;;8.90;99.90;;;;;;5115146;28;20670;-62
2022/02/22 00:06:24;;;;;;;4.53;1.67;;;8.90;99.90;;;;;;5114971;28;20226;-62
2022/02/22 00:08:51;;;;;;;8.63;1.73;;;8.80;99.90;;;;;;5114713;28;20212;-61
2022/02/22 00:11:18;;;;;;;4.97;1.70;;;8.70;99.90;;;;;;5114811;28;20203;-62
2022/02/22 00:13:45;;;;;;;4.63;1.30;;;8.70;99.90;;;;;;5114672;28;20227;-61
2022/02/22 00:16:12;;;;;;;6.10;1.90;;;8.70;99.90;;;;;;5115013;28;20204;-62
2022/02/22 00:18:38;;;;;;;7.17;1.60;;;8.60;99.90;;;;;;5114861;28;20206;-61
2022/02/22 00:21:05;;;;;;;8.10;1.80;;;8.60;99.90;;;;;;5114473;28;20230;-61
2022/02/22 00:23:32;;;;;;;7.63;2.00;;;8.60;99.90;;;;;;5114584;28;20219;-62
2022/02/22 00:26:00;;;;;;;6.63;1.60;;;8.60;99.90;;;;;;5114679;28;20324;-62
2022/02/22 00:28:26;;;;;;;6.47;1.80;;;8.50;99.90;;;;;;5114804;28;20583;-62
2022/02/22 00:30:53;;;;;;;7.40;1.83;;;8.50;99.90;;;;;;5114552;28;20199;-63
2022/02/22 00:33:20;;;;;;;7.30;1.63;;;8.60;99.90;;;;;;5114546;28;20224;-62
2022/02/22 00:35:47;;;;;;;5.23;1.90;;;8.60;99.90;;;;;;5114437;28;20241;-62
2022/02/22 00:38:14;;;;;;;6.70;1.60;;;8.40;99.90;;;;;;5114310;28;20575;-62
2022/02/22 00:40:40;;;;;;;5.10;1.70;;;8.50;99.90;;;;;;5114284;28;20207;-62
2022/02/22 00:43:09;;;;;;;5.67;1.90;;;8.40;99.90;;;;;;5113935;28;20231;-61
2022/02/22 00:45:36;;;;;;;5.97;1.50;;;8.40;99.90;;;;;;5114428;28;20318;-61
2022/02/22 00:48:03;;;;;;;7.80;1.80;;;8.50;99.90;;;;;;5114284;28;20207;-60
2022/02/22 00:50:30;;;;;;;6.07;1.90;;;8.40;99.90;;;;;;5113921;28;20623;-61
2022/02/22 00:52:57;;;;;;;4.83;1.60;;;8.50;99.90;;;;;;5114047;28;20220;-62
2022/02/22 00:55:24;;;;;;;6.60;1.50;;;8.50;99.90;;;;;;5114147;28;20207;-62
2022/02/22 00:57:51;;;;;;;6.13;1.60;;;8.50;99.90;;;;;;5114004;28;20682;-62
2022/02/22 01:00:19;;;;;;;5.63;1.67;;;8.50;99.90;;;;;;5113863;28;20200;-61
2022/02/22 01:02:47;;;;;;;7.10;1.73;;;8.50;99.90;;;;;;5114040;28;20235;-61
2022/02/22 01:05:14;;;;;;;5.53;1.40;;;8.40;99.90;;;;;;5113842;28;20231;-62
2022/02/22 01:07:41;;;;;;;6.87;1.93;;;8.40;99.90;;;;;;5113750;27;20231;-61
2022/02/22 01:10:09;;;;;;;4.17;1.60;;;8.50;99.90;;;;;;5113701;28;20204;-61
2022/02/22 01:12:35;;;;;;;6.20;1.93;;;8.50;99.90;;;;;;5113730;28;20237;-61
2022/02/22 01:15:02;;;;;;;6.70;1.60;;;8.40;99.90;;;;;;5113792;28;20590;-61
2022/02/22 01:17:30;;;;;;;6.67;1.80;;;8.40;99.90;;;;;;5113707;28;20204;-61
2022/02/22 01:19:57;;;;;;;5.53;1.73;;;8.40;99.90;;;;;;5113284;28;20203;-61
2022/02/22 01:22:24;;;;;;;6.63;1.40;;;8.40;99.90;;;;;;5113642;28;20231;-61
2022/02/22 01:24:51;;;;;;;7.17;1.73;;;8.50;99.90;;;;;;5113911;28;20211;-61
2022/02/22 01:27:17;;;;;;;6.33;1.60;;;8.50;99.90;;;;;;5113243;28;20228;-61
2022/02/22 01:29:44;;;;;;;7.70;1.83;;;8.30;99.90;;;;;;5113188;28;20702;-62
2022/02/22 01:32:11;;;;;;;4.53;1.53;;;8.20;99.90;;;;;;5113256;28;20227;-61
2022/02/22 01:34:39;;;;;;;6.53;2.00;;;8.20;99.90;;;;;;5113746;28;20207;-62
2022/02/22 01:37:06;;;;;;;8.00;1.87;;;8.20;99.90;;;;;;5113395;28;20204;-61
2022/02/22 01:39:33;;;;;;;6.83;1.50;;;8.20;99.90;;;;;;5113171;28;20203;-61
2022/02/22 01:42:01;;;;;;;6.30;1.47;;;8.30;99.90;;;;;;5113664;28;20370;-61
2022/02/22 01:44:28;;;;;;;6.77;2.03;;;8.30;99.90;;;;;;5113209;28;20335;-60
2022/02/22 01:46:56;;;;;;;6.23;1.80;;;8.20;99.90;;;;;;5112944;28;20227;-62
2022/02/22 01:49:23;;;;;;;5.97;1.50;;;8.20;99.90;;;;;;5112732;28;20264;-61
2022/02/22 01:51:52;;;;;;;5.97;1.57;;;8.20;99.90;;;;;;5112817;28;20231;-62
2022/02/22 01:54:19;;;;;;;4.23;1.43;;;8.10;99.90;;;;;;5112839;28;20260;-62
2022/02/22 01:56:46;;;;;;;4.10;1.33;;;8.10;99.90;;;;;;5112435;28;20207;-61
2022/02/22 01:59:13;;;;;;;6.40;1.63;;;7.90;99.90;;;;;;5112782;28;20212;-61
2022/02/22 02:01:40;;;;;;;9.83;1.87;;;7.80;99.90;;;;;;5112711;28;20203;-63
2022/02/22 02:04:07;;;;;;;4.50;1.30;;;7.90;99.90;;;;;;5113000;28;20215;-61
2022/02/22 02:06:34;;;;;;;7.97;1.73;;;7.80;99.90;;;;;;5112816;28;20256;-61
2022/02/22 02:09:02;;;;;;;6.17;1.70;;;7.80;99.90;;;;;;5112596;28;20203;-61
2022/02/22 02:11:29;;;;;;;6.13;2.17;;;7.80;99.90;;;;;;5112397;28;20612;-61
2022/02/22 02:13:55;;;;;;;5.83;1.63;;;7.80;99.90;;;;;;5112663;28;20635;-61
2022/02/22 02:16:22;;;;;;;5.50;1.70;;;7.80;99.90;;;;;;5112504;28;20204;-61
2022/02/22 02:18:49;;;;;;;8.77;2.03;;;7.90;99.90;;;;;;5112842;28;20249;-61
2022/02/22 02:21:16;;;;;;;8.17;1.93;;;7.80;99.90;;;;;;5112496;28;20199;-62
2022/02/22 02:23:44;;;;;;;6.90;1.53;;;7.80;99.90;;;;;;5112715;28;20227;-62
2022/02/22 02:26:11;;;;;;;5.07;1.80;;;7.80;99.90;;;;;;5112332;28;20710;-62
2022/02/22 02:28:38;;;;;;;10.87;2.30;;;7.80;99.90;;;;;;5112297;28;20671;-60
2022/02/22 02:31:04;;;;;;;5.73;1.40;;;7.80;99.90;;;;;;5112286;28;20611;-60
2022/02/22 02:33:31;;;;;;;5.20;1.70;;;7.80;99.90;;;;;;5112546;28;20231;-61
2022/02/22 02:35:58;;;;;;;9.77;2.20;;;7.90;99.90;;;;;;5112441;28;20203;-61
2022/02/22 02:38:24;;;;;;;5.00;1.50;;;7.90;99.90;;;;;;5112312;28;20583;-62
2022/02/22 02:40:52;;;;;;;7.07;2.33;;;7.90;99.90;;;;;;5112160;28;20286;-61
2022/02/22 02:43:19;;;;;;;8.60;1.83;;;7.90;99.90;;;;;;5112151;28;20223;-62
2022/02/22 02:45:46;;;;;;;6.53;1.80;;;7.90;99.90;;;;;;5112387;28;20238;-62
2022/02/22 02:48:13;;;;;;;4.93;1.70;;;7.80;99.90;;;;;;5112631;28;20207;-62
2022/02/22 02:50:39;;;;;;;7.57;2.20;;;7.80;99.90;;;;;;5112133;28;20207;-62
2022/02/22 02:53:06;;;;;;;6.70;2.40;;;7.60;99.90;;;;;;5112085;28;20624;-62
2022/02/22 02:55:33;;;;;;;5.90;1.83;;;7.50;99.90;;;;;;5112281;28;20331;-62
2022/02/22 02:58:01;;;;;;;7.27;2.47;;;7.40;99.90;;;;;;5112302;28;20230;-62
2022/02/22 03:00:28;;;;;;;4.73;1.50;;;7.40;99.90;;;;;;5112278;28;20286;-62
2022/02/22 03:02:55;;;;;;;5.30;1.90;;;7.40;99.90;;;;;;5112364;28;20231;-62
2022/02/22 03:05:22;;;;;;;7.30;1.87;;;7.40;99.90;;;;;;5112743;28;20246;-63
2022/02/22 03:07:49;;;;;;;7.03;1.97;;;7.30;99.90;;;;;;5115457;28;20270;-62
2022/02/22 03:10:16;;;;;;;8.47;1.77;;;7.30;99.90;;;;;;5116194;28;20659;-62
2022/02/22 03:12:42;;;;;;;12.13;2.07;;;7.30;99.90;;;;;;5116648;28;20609;-62
2022/02/22 03:15:11;;;;;;;9.47;2.17;;;7.40;99.90;;;;;;5116338;28;20207;-61
2022/02/22 03:17:37;;;;;;;7.20;2.10;;;7.20;99.90;;;;;;5116487;28;20199;-62
2022/02/22 03:20:06;;;;;;;8.93;1.90;;;7.10;99.90;;;;;;5116104;28;20208;-61
2022/02/22 03:22:32;;;;;;;8.47;1.77;;;7.20;99.90;;;;;;5115949;28;20272;-62
2022/02/22 03:24:59;;;;;;;6.20;1.90;;;7.20;99.90;;;;;;5115912;28;20200;-61
2022/02/22 03:27:26;;;;;;;9.03;1.77;;;7.20;99.90;;;;;;5115848;28;20280;-62
2022/02/22 03:29:52;;;;;;;7.57;2.10;;;7.20;99.90;;;;;;5115662;28;20203;-62
2022/02/22 03:32:21;;;;;;;9.97;2.00;;;7.20;99.90;;;;;;5115703;28;20227;-61
2022/02/22 03:34:48;;;;;;;6.70;1.93;;;7.00;99.90;;;;;;5115648;28;20257;-61
2022/02/22 03:37:14;;;;;;;6.97;1.80;;;7.00;99.90;;;;;;5115563;28;20249;-61
2022/02/22 03:39:41;;;;;;;7.20;2.13;;;6.90;99.90;;;;;;5115219;28;20731;-61
2022/02/22 03:42:08;;;;;;;7.13;1.60;;;6.90;99.90;;;;;;5115432;28;20738;-61
2022/02/22 03:44:34;;;;;;;6.97;2.33;;;6.80;99.90;;;;;;5115600;28;20218;-61
2022/02/22 03:47:01;;;;;;;8.93;2.20;;;6.90;99.90;;;;;;5115363;28;20779;-61
2022/02/22 03:49:29;;;;;;;8.53;2.30;;;7.00;99.90;;;;;;5115222;28;20241;-61
2022/02/22 03:51:56;;;;;;;9.23;1.73;;;7.00;99.90;;;;;;5115361;28;20227;-61
2022/02/22 03:54:23;;;;;;;6.07;2.03;;;6.90;99.90;;;;;;5115219;28;20207;-62
2022/02/22 03:56:50;;;;;;;6.00;1.90;;;7.00;99.90;;;;;;5115147;28;20244;-61
2022/02/22 03:59:16;;;;;;;6.43;2.00;;;7.10;99.90;;;;;;5115155;28;20206;-61
2022/02/22 04:01:43;;;;;;;9.43;1.70;;;7.10;99.90;;;;;;5115051;28;20211;-61
2022/02/22 04:04:10;;;;;;;8.03;1.70;;;7.10;99.90;;;;;;5115265;28;20625;-61
2022/02/22 04:06:38;;;;;;;4.70;1.60;;;7.00;99.90;;;;;;5114829;28;20298;-61
2022/02/22 04:09:05;;;;;;;2.67;1.20;;;7.00;99.90;;;;;;5115288;28;20248;-62
2022/02/22 04:11:31;;;;;;;4.83;2.00;;;7.00;99.90;;;;;;5114928;28;20203;-61
2022/02/22 04:13:58;;;;;;;8.47;2.00;;;6.90;99.90;;;;;;5115007;28;20200;-61
2022/02/22 04:16:25;;;;;;;7.93;1.93;;;7.00;99.90;;;;;;5114904;28;20199;-62
2022/02/22 04:18:51;;;;;;;19.77;13.70;;;7.00;99.90;;;;;;5113742;28;20678;-61
2022/02/22 04:21:18;;;;;;;6.33;2.40;;;7.00;99.90;;;;;;5114520;28;20230;-61
2022/02/22 04:23:46;;;;;;;6.40;2.17;;;7.00;99.90;;;;;;5114712;28;20300;-60
2022/02/22 04:26:13;;;;;;;6.57;1.83;;;7.10;99.90;;;;;;5114652;28;20212;-61
2022/02/22 04:28:40;;;;;;;6.87;1.70;;;7.20;99.90;;;;;;5114711;28;20203;-61
2022/02/22 04:31:06;;;;;;;6.80;1.80;;;7.20;99.90;;;;;;5114365;28;20215;-62
2022/02/22 04:33:33;;;;;;;6.73;1.97;;;7.10;99.90;;;;;;5114548;28;20265;-62
2022/02/22 04:36:00;;;;;;;4.53;1.90;;;7.00;99.90;;;;;;5114835;28;20591;-62
2022/02/22 04:38:26;;;;;;;5.37;1.93;;;6.90;99.90;;;;;;5114523;28;20712;-62
2022/02/22 04:40:54;;;;;;;5.17;1.63;;;7.00;99.90;;;;;;5114328;28;20207;-63
2022/02/22 04:43:21;;;;;;;5.10;1.53;;;7.00;99.90;;;;;;5114240;28;20582;-61
2022/02/22 04:45:48;;;;;;;8.37;2.27;;;7.00;99.90;;;;;;5114209;28;20204;-61
2022/02/22 04:48:14;;;;;;;5.40;1.80;;;6.80;99.90;;;;;;5113969;28;20231;-61
2022/02/22 04:50:41;;;;;;;5.03;1.30;;;6.70;99.90;;;;;;5114032;28;20203;-61
2022/02/22 04:53:09;;;;;;;5.17;1.80;;;6.60;99.90;;;;;;5114331;28;20224;-62
2022/02/22 04:55:36;;;;;;;6.60;2.00;;;6.60;99.90;;;;;;5114059;28;20203;-61
2022/02/22 04:58:04;;;;;;;8.60;2.00;;;6.50;99.90;;;;;;5114086;28;20234;-61
2022/02/22 05:00:31;;;;;;;5.53;2.03;;;6.50;99.90;;;;;;5113911;28;20226;-61
2022/02/22 05:02:58;;;;;;;5.67;1.67;;;6.40;99.90;;;;;;5113834;28;20585;-63
2022/02/22 05:05:25;;;;;;;5.43;1.93;;;6.30;99.90;;;;;;5114108;28;20212;-61
2022/02/22 05:07:51;;;;;;;4.47;1.70;;;6.30;99.90;;;;;;5113847;28;20522;-62
2022/02/22 05:10:18;;;;;;;5.30;1.60;;;6.30;99.90;;;;;;5113700;28;20208;-62
2022/02/22 05:12:45;;;;;;;6.80;2.20;;;6.40;99.90;;;;;;5113536;28;20235;-61
2022/02/22 05:15:13;;;;;;;5.63;1.63;;;6.30;99.90;;;;;;5113986;28;20219;-61
2022/02/22 05:17:39;;;;;;;5.97;2.07;;;6.20;99.90;;;;;;5113650;28;20276;-63
2022/02/22 05:20:08;;;;;;;7.27;2.07;;;6.10;99.90;;;;;;5113546;28;20794;-61
2022/02/22 05:22:42;;;;;;;4.20;1.83;;;6.00;99.90;;;;;;5113469;28;20230;-61
2022/02/22 05:25:10;;;;;;;9.53;2.27;;;5.90;99.90;;;;;;5113817;28;20200;-64
2022/02/22 05:27:37;;;;;;;6.47;2.30;;;5.80;99.90;;;;;;5113668;28;20269;-60
2022/02/22 05:30:04;;;;;;;7.50;1.97;;;5.80;99.90;;;;;;5113272;28;20208;-61
2022/02/22 05:32:33;;;;;;;7.10;2.87;;;5.70;99.90;;;;;;5113364;28;20612;-62
2022/02/22 05:35:00;;;;;;;8.17;2.40;;;5.70;99.90;;;;;;5113857;28;20211;-63
2022/02/22 05:37:27;;;;;;;8.97;2.20;;;5.70;99.90;;;;;;5113409;28;20204;-62
2022/02/22 05:39:55;;;;;;;10.13;3.00;;;5.70;99.90;;;;;;5113341;28;20579;-63
2022/02/22 05:42:22;;;;;;;10.33;2.90;;;5.70;99.90;;;;;;5113251;28;20707;-62
2022/02/22 05:44:49;;;;;;;8.70;2.27;;;5.70;99.90;;;;;;5113910;28;20207;-62
2022/02/22 05:47:16;;;;;;;11.37;2.60;;;5.90;99.90;;;;;;5113340;28;20284;-61
2022/02/22 05:49:44;;;;;;;8.43;2.23;;;5.80;99.90;;;;;;5113355;28;20214;-62
2022/02/22 05:52:11;;;;;;;6.93;2.47;;;5.90;99.90;;;;;;5113191;28;20272;-61
2022/02/22 05:54:38;;;;;;;9.40;2.53;;;5.90;99.90;;;;;;5113016;28;20210;-63
2022/02/22 05:57:05;;;;;;;9.33;2.53;;;5.90;99.90;;;;;;5112985;28;20196;-63
2022/02/22 05:59:31;;;;;;;11.80;2.47;;;5.80;99.90;;;;;;5112771;28;20200;-61
2022/02/22 06:01:58;;;;;;;6.27;2.43;;;5.80;99.90;;;;;;5113186;28;20235;-63
2022/02/22 06:04:26;;;;;;;10.00;3.07;;;5.80;99.90;;;;;;5113118;28;20212;-62
2022/02/22 06:06:54;;;;;;;12.50;2.90;;;5.80;99.90;;;;;;5112826;28;20277;-61
2022/02/22 06:09:21;;;;;;;14.07;3.23;;;5.70;99.90;;;;;;5113078;28;20214;-61
2022/02/22 06:11:48;;;;;;;9.03;2.60;;;5.60;99.90;;;;;;5113369;28;20223;-63
2022/02/22 06:14:16;;;;;;;8.57;2.57;;;5.60;99.90;;;;;;5113333;28;20235;-62
2022/02/22 06:16:42;;;;;;;6.37;2.47;;;5.50;99.90;;;;;;5113547;28;20214;-63
2022/02/22 06:19:09;;;;;;;8.27;2.57;;;5.40;99.90;;;;;;5114248;28;20207;-62
2022/02/22 06:21:36;;;;;;;7.13;2.70;;;5.40;99.90;;;;;;5113018;28;20214;-62
2022/02/22 06:24:05;;;;;;;5.97;2.47;;;5.30;99.90;;;;;;5113099;28;20212;-61
2022/02/22 06:26:32;;;;;;;9.77;3.20;;;5.30;99.90;;;;;;5113661;28;20203;-61
2022/02/22 06:28:58;;;;;;;7.73;3.00;;;5.30;99.90;;;;;;5113755;28;20210;-62
2022/02/22 06:31:25;;;;;;;10.70;2.80;;;5.30;99.90;;;;;;5112776;28;20233;-62
2022/02/22 06:33:52;;;;;;;8.87;2.57;;;5.30;99.90;;;;;;5112969;28;20207;-61
2022/02/22 06:36:19;;;;;;;5.17;2.73;;;5.30;99.90;;;;;;5113004;28;20207;-63
2022/02/22 06:38:46;;;;;;;8.00;2.60;;;5.40;99.90;;;;;;5113417;28;20212;-61
2022/02/22 06:41:14;;;;;;;8.07;2.60;;;5.40;99.90;;;;;;5113506;28;20211;-62
2022/02/22 06:43:40;;;;;;;7.93;2.80;;;5.40;99.90;;;;;;5117544;28;20231;-62
2022/02/22 06:46:07;;;;;;;8.53;2.53;;;5.50;99.90;;;;;;5117627;28;20257;-61
2022/02/22 06:48:34;;;;;;;10.37;3.60;;;5.50;99.90;;;;;;5117422;28;20488;-62
2022/02/22 06:51:01;;;;;;;8.57;2.60;;;5.60;99.90;;;;;;5117085;28;20601;-63
2022/02/22 06:53:27;;;;;;;8.00;2.70;;;5.60;99.90;;;;;;5116661;28;20231;-61
2022/02/22 06:55:54;;;;;;;12.23;2.87;;;5.60;99.90;;;;;;5116733;28;20199;-62
2022/02/22 06:58:22;;;;;;;6.50;2.40;;;5.70;99.90;;;;;;5116576;28;20252;-62
2022/02/22 07:00:51;;;;;;;7.63;2.40;;;5.60;99.90;;;;;;5116229;28;20579;-62
2022/02/22 07:03:17;;;;;;;7.93;2.57;;;5.90;99.90;;;;;;5116355;28;20309;-61
2022/02/22 07:05:44;;;;;;;10.73;2.70;;;6.40;99.90;;;;;;5116155;28;20280;-61
2022/02/22 07:08:11;;;;;;;7.00;2.20;;;6.80;99.90;;;;;;5116208;28;20315;-61
2022/02/22 07:10:38;;;;;;;11.47;2.80;;;7.20;99.90;;;;;;5116065;28;20200;-61
2022/02/22 07:13:05;;;;;;;11.17;2.70;;;7.60;99.90;;;;;;5116099;28;20266;-62
2022/02/22 07:15:33;;;;;;;7.17;2.00;;;8.20;99.90;;;;;;5115945;28;20211;-60
2022/02/22 07:18:05;;;;;;;7.33;2.40;;;8.90;99.90;;;;;;5115800;28;20196;-60
2022/02/22 07:20:33;;;;;;;7.07;2.20;;;9.60;99.90;;;;;;5115635;28;20250;-60
2022/02/22 07:23:00;;;;;;;4.33;2.40;;;9.80;99.90;;;;;;5116525;28;20597;-60
2022/02/22 07:25:29;;;;;;;6.10;2.30;;;10.20;99.90;;;;;;5115927;28;20226;-60
2022/02/22 07:27:57;;;;;;;9.63;3.80;;;10.60;99.90;;;;;;5115209;28;20219;-60
2022/02/22 07:30:25;;;;;;;7.13;2.30;;;10.80;99.90;;;;;;5115444;28;20253;-60
2022/02/22 07:32:56;;;;;;;7.90;3.20;;;10.70;99.90;;;;;;5115458;28;20637;-60
2022/02/22 07:35:23;;;;;;;10.03;2.87;;;10.20;99.90;;;;;;5115862;28;20204;-63
2022/02/22 07:37:50;;;;;;;5.43;2.23;;;9.80;99.90;;;;;;5115426;28;20204;-59
2022/02/22 07:40:18;;;;;;;8.03;2.40;;;9.40;99.90;;;;;;5115350;28;20203;-62
2022/02/22 07:42:45;;;;;;;11.93;2.87;;;9.10;99.90;;;;;;5115296;28;20597;-63
2022/02/22 07:45:12;;;;;;;5.97;2.33;;;8.90;99.90;;;;;;5115420;28;20214;-62
2022/02/22 07:47:39;;;;;;;9.63;2.53;;;8.70;99.90;;;;;;5115059;28;20333;-63
2022/02/22 07:50:09;;;;;;;6.70;2.50;;;8.60;99.90;;;;;;5115051;28;20671;-62
2022/02/22 07:52:36;;;;;;;8.60;2.50;;;8.40;99.90;;;;;;5114705;28;20257;-62
2022/02/22 07:55:05;;;;;;;8.13;2.47;;;8.50;99.90;;;;;;5115143;28;20666;-62
2022/02/22 07:57:32;;;;;;;7.17;2.53;;;8.50;99.90;;;;;;5115398;28;20291;-62
2022/02/22 08:00:00;;;;;;;7.00;2.53;;;8.50;99.90;;;;;;5114804;28;20203;-63
2022/02/22 08:02:26;;;;;;;6.93;2.30;;;8.40;99.90;;;;;;5115507;28;20707;-62
2022/02/22 08:04:53;;;;;;;34.40;22.23;;;8.60;99.90;;;;;;5115451;28;20211;-62
2022/02/22 08:07:21;;;;;;;10.23;3.73;;;8.70;99.90;;;;;;5115088;28;20207;-63
2022/02/22 08:09:48;;;;;;;10.10;3.03;;;8.70;99.90;;;;;;5114716;28;20199;-60
2022/02/22 08:12:15;;;;;;;15.73;5.83;;;8.80;99.90;;;;;;5114813;28;20288;-63
2022/02/22 08:14:42;;;;;;;10.47;3.23;;;8.90;99.90;;;;;;5114896;28;20276;-61
2022/02/22 08:17:09;;;;;;;7.50;2.93;;;9.10;99.90;;;;;;5115283;28;20208;-62
2022/02/22 08:19:36;;;;;;;13.57;2.73;;;9.40;99.90;;;;;;5114761;28;20211;-62
2022/02/22 08:22:03;;;;;;;6.80;2.53;;;9.70;99.90;;;;;;5114834;28;20247;-61
2022/02/22 08:24:31;;;;;;;9.57;3.13;;;10.00;99.90;;;;;;5115050;28;20223;-60
2022/02/22 08:27:03;;;;;;;7.23;2.60;;;10.00;99.90;;;;;;5114888;28;20560;-60
2022/02/22 08:29:29;;;;;;;9.77;2.70;;;10.00;99.90;;;;;;5114495;28;20698;-60
2022/02/22 08:31:56;;;;;;;8.03;2.83;;;9.90;99.90;;;;;;5114325;28;20231;-60
2022/02/22 08:34:23;;;;;;;7.87;2.90;;;9.90;99.90;;;;;;5114668;28;20199;-60
2022/02/22 08:36:50;;;;;;;7.00;2.97;;;9.90;99.90;;;;;;5114494;28;20208;-60
2022/02/22 08:39:17;;;;;;;7.10;2.43;;;9.90;99.90;;;;;;5114285;28;20196;-59
2022/02/22 08:41:45;;;;;;;8.17;2.53;;;10.00;99.90;;;;;;5113925;28;20308;-60
2022/02/22 08:44:13;;;;;;;10.80;2.93;;;10.10;99.90;;;;;;5114395;28;20210;-60
2022/02/22 08:46:39;;;;;;;8.90;2.57;;;10.30;99.90;;;;;;5114497;28;20199;-59
2022/02/22 08:49:06;;;;;;;43.50;30.23;;;10.40;99.90;;;;;;5114522;28;20269;-59
2022/02/22 08:51:33;;;;;;;8.43;2.50;;;10.30;99.90;;;;;;5113809;28;20214;-60
2022/02/22 08:53:59;;;;;;;5.97;2.50;;;10.40;99.90;;;;;;5114083;28;20204;-59
2022/02/22 08:56:26;;;;;;;9.23;2.73;;;10.60;99.90;;;;;;5114033;28;20614;-62
2022/02/22 08:58:54;;;;;;;11.57;3.23;;;10.90;99.90;;;;;;5113993;28;20671;-60
2022/02/22 09:01:21;;;;;;;8.43;2.50;;;10.90;99.90;;;;;;5113758;28;20694;-61
2022/02/22 09:03:48;;;;;;;11.07;2.63;;;11.10;99.90;;;;;;5113809;28;20223;-62
2022/02/22 09:06:14;;;;;;;10.40;3.00;;;11.20;99.90;;;;;;5113830;28;20218;-62
2022/02/22 09:08:41;;;;;;;12.37;3.40;;;11.20;99.90;;;;;;5113600;28;20315;-62
2022/02/22 09:11:08;;;;;;;10.17;2.60;;;11.10;99.90;;;;;;5113559;28;20211;-62
2022/02/22 09:13:34;;;;;;;7.47;2.90;;;11.20;99.90;;;;;;5114319;28;20243;-62
2022/02/22 09:16:02;;;;;;;10.50;3.07;;;11.30;99.90;;;;;;5113584;28;20203;-62
2022/02/22 09:18:29;;;;;;;12.10;2.83;;;11.20;99.90;;;;;;5113636;28;20195;-62
2022/02/22 09:20:56;;;;;;;14.00;2.67;;;11.10;99.90;;;;;;5113350;28;20203;-63
2022/02/22 09:23:22;;;;;;;7.17;2.47;;;10.90;99.90;;;;;;5113306;28;20574;-63
2022/02/22 09:25:49;;;;;;;7.77;3.00;;;10.80;99.90;;;;;;5113586;28;20204;-63
2022/02/22 09:28:16;;;;;;;9.63;2.50;;;10.80;99.90;;;;;;5113458;28;20280;-63
2022/02/22 09:30:43;;;;;;;8.03;2.30;;;10.90;99.90;;;;;;5113083;28;20740;-62
2022/02/22 09:33:11;;;;;;;9.43;2.90;;;10.90;99.90;;;;;;5113778;28;20250;-63
2022/02/22 09:35:38;;;;;;;9.07;2.20;;;11.00;99.90;;;;;;5113368;28;20208;-64
2022/02/22 09:38:05;;;;;;;6.83;2.10;;;11.00;99.90;;;;;;5113187;28;20603;-64
2022/02/22 09:40:31;;;;;;;8.33;2.53;;;10.90;99.90;;;;;;5112909;28;20736;-64
2022/02/22 09:42:59;;;;;;;8.13;2.20;;;10.90;99.90;;;;;;5113035;28;20223;-64
2022/02/22 09:45:25;;;;;;;9.53;2.10;;;10.90;99.90;;;;;;5113087;28;20203;-64
2022/02/22 09:47:55;;;;;;;7.50;2.03;;;11.00;99.90;;;;;;5113038;28;20236;-63
2022/02/22 09:50:24;;;;;;;9.30;2.57;;;11.00;99.90;;;;;;5110959;28;20646;-60
2022/02/22 09:52:51;;;;;;;7.00;2.70;;;11.00;99.90;;;;;;5091535;28;20224;-63
2022/02/22 09:55:18;;;;;;;8.80;4.33;;;11.00;99.90;;;;;;5092631;28;20204;-64
2022/02/22 09:57:44;;;;;;;8.70;2.73;;;11.20;99.90;;;;;;5092606;28;20692;-65
2022/02/22 10:00:21;;;;;;;14.03;3.13;;;11.30;99.90;;;;;;5092305;28;20688;-65
2022/02/22 10:02:49;;;;;;;10.17;3.60;;;11.50;99.90;;;;;;5092277;28;20227;-66
2022/02/22 10:05:17;;;;;;;12.33;2.47;;;11.40;99.90;;;;;;5091704;28;20208;-69
2022/02/22 10:07:52;;;;;;;8.33;2.20;;;11.20;99.90;;;;;;5092509;28;20219;-65
2022/02/22 10:10:20;;;;;;;8.27;2.17;;;11.20;99.90;;;;;;5091980;28;20231;-64
2022/02/22 10:12:54;;;;;;;8.47;2.20;;;11.20;99.90;;;;;;5092035;28;20232;-63
2022/02/22 10:15:21;;;;;;;8.03;2.60;;;11.40;99.90;;;;;;5091995;28;20236;-64
2022/02/22 10:17:52;;;;;;;11.47;2.50;;;11.60;99.90;;;;;;5091694;28;20200;-64
2022/02/22 10:20:19;;;;;;;8.97;2.57;;;11.80;99.90;;;;;;5092146;28;20232;-64
2022/02/22 10:22:51;;;;;;;6.47;2.23;;;11.90;99.90;;;;;;5092266;28;20274;-63
2022/02/22 10:25:19;;;;;;;7.93;2.53;;;12.10;99.90;;;;;;5092170;28;20665;-64
2022/02/22 10:27:48;;;;;;;5.37;2.17;;;12.20;99.90;;;;;;5091979;28;20295;-63
2022/02/22 10:30:31;;;;;;;7.00;2.37;;;12.30;99.90;;;;;;5091917;28;20622;-64
2022/02/22 10:33:00;;;;;;;9.17;2.20;;;12.30;99.90;;;;;;5092100;28;20597;-64
2022/02/22 10:35:31;;;;;;;9.90;2.47;;;12.40;99.90;;;;;;5092187;28;20208;-63
2022/02/22 10:38:00;;;;;;;9.53;2.63;;;12.50;99.90;;;;;;5092039;28;20200;-64
2022/02/22 10:40:28;;;;;;;11.57;3.00;;;12.50;99.90;;;;;;5091647;28;20241;-64
2022/02/22 10:42:55;;;;;;;9.93;2.87;;;12.40;99.90;;;;;;5092177;28;20228;-64
2022/02/22 10:45:22;;;;;;;9.77;2.50;;;12.40;99.90;;;;;;5092124;28;20208;-64
2022/02/22 10:47:49;;;;;;;8.83;3.30;;;12.40;99.90;;;;;;5092072;28;20306;-62
2022/02/22 10:50:16;;;;;;;11.63;3.03;;;12.50;99.90;;;;;;5091707;28;20220;-62
2022/02/22 10:52:43;;;;;;;11.97;3.47;;;12.60;99.90;;;;;;5091836;28;20644;-60
2022/02/22 10:55:11;;;;;;;9.77;3.00;;;12.90;99.90;;;;;;5088464;28;20448;-64
2022/02/22 10:57:38;;;;;;;7.30;2.67;;;13.20;99.90;;;;;;5091394;28;20204;-63
2022/02/22 11:00:06;;;;;;;10.03;2.93;;;13.30;99.90;;;;;;5098925;28;20261;-60
2022/02/22 11:02:34;;;;;;;8.50;3.03;;;13.40;99.90;;;;;;5107665;28;20272;-59
2022/02/22 11:05:01;;;;;;;8.23;2.87;;;13.40;99.90;;;;;;5111587;28;20210;-59
2022/02/22 11:07:29;;;;;;;6.43;2.23;;;13.40;99.90;;;;;;5111682;28;20204;-65
2022/02/22 11:09:57;;;;;;;9.37;2.73;;;13.40;99.90;;;;;;5112017;28;20219;-60
2022/02/22 11:12:29;;;;;;;8.60;2.77;;;13.40;99.90;;;;;;5111676;28;20234;-58
2022/02/22 11:15:05;;;;;;;6.83;2.20;;;13.50;99.90;;;;;;5111610;28;20204;-60
2022/02/22 11:17:32;;;;;;;16.33;3.27;;;13.70;99.90;;;;;;5111927;28;20214;-60
2022/02/22 11:19:59;;;;;;;10.67;2.93;;;13.60;99.90;;;;;;5111373;28;20199;-63
2022/02/22 11:22:27;;;;;;;9.83;2.97;;;13.60;99.90;;;;;;5111356;28;20231;-63
2022/02/22 11:24:56;;;;;;;12.10;3.03;;;13.40;99.90;;;;;;5111965;28;20679;-63
2022/02/22 11:27:28;;;;;;;7.77;2.60;;;13.30;99.90;;;;;;5113060;28;20200;-63
2022/02/22 11:29:57;;;;;;;9.23;2.90;;;13.10;99.90;;;;;;5115587;28;20231;-61
2022/02/22 11:32:24;;;;;;;10.90;5.47;;;12.80;99.90;;;;;;5115326;28;20219;-61
2022/02/22 11:34:50;;;;;;;11.47;2.97;;;12.70;99.90;;;;;;5115592;28;20291;-61
2022/02/22 11:37:28;;;;;;;6.63;2.23;;;12.60;99.90;;;;;;5115412;28;20253;-62
2022/02/22 11:39:55;;;;;;;10.27;2.63;;;12.60;99.90;;;;;;5115154;28;20203;-63
2022/02/22 11:42:24;;;;;;;8.50;2.70;;;12.60;99.90;;;;;;5115195;28;20306;-64
2022/02/22 11:45:07;;;;;;;6.73;2.60;;;12.70;99.90;;;;;;5115008;28;20573;-62
2022/02/22 11:47:36;;;;;;;15.23;3.20;;;12.80;99.90;;;;;;5115128;28;20204;-62
2022/02/22 11:50:12;;;;;;;8.10;2.40;;;12.90;99.90;;;;;;5114780;28;20668;-63
2022/02/22 11:52:41;;;;;;;8.23;2.80;;;13.00;99.90;;;;;;5114831;28;20313;-62
2022/02/22 11:55:10;;;;;;;5.70;2.40;;;13.20;99.90;;;;;;5114762;28;20219;-61
2022/02/22 11:57:44;;;;;;;10.83;3.40;;;13.30;99.90;;;;;;5114928;28;20204;-61
2022/02/22 12:00:14;;;;;;;11.00;4.70;;;13.40;99.90;;;;;;5114954;28;20237;-61
2022/02/22 12:02:42;;;;;;;10.67;2.93;;;13.50;99.90;;;;;;5114851;28;20220;-61
2022/02/22 12:05:24;;;;;;;10.47;3.20;;;13.50;99.90;;;;;;5114860;28;20207;-61
2022/02/22 12:07:59;;;;;;;14.03;2.93;;;13.60;99.90;;;;;;5114774;28;20599;-61
2022/02/22 12:10:26;;;;;;;8.40;2.67;;;13.50;99.90;;;;;;5114736;28;20314;-61
2022/02/22 12:12:53;;;;;;;7.83;2.50;;;13.30;99.90;;;;;;5114925;28;20236;-61
2022/02/22 12:15:31;;;;;;;8.07;3.03;;;13.00;99.90;;;;;;5102819;28;20446;-62
2022/02/22 12:17:58;;;;;;;9.13;2.80;;;13.00;99.90;;;;;;5105698;28;20625;-62
2022/02/22 12:20:26;;;;;;;8.70;2.63;;;13.10;99.90;;;;;;5114687;28;20204;-61
2022/02/22 12:22:54;;;;;;;8.83;2.47;;;13.20;99.90;;;;;;5114623;28;20227;-61
2022/02/22 12:25:25;;;;;;;12.13;3.23;;;13.20;99.90;;;;;;5113849;28;20616;-61
2022/02/22 12:27:59;;;;;;;13.23;6.00;;;13.20;99.90;;;;;;5114465;28;20294;-61
2022/02/22 12:30:36;;;;;;;11.17;3.17;;;13.30;99.90;;;;;;5113846;28;20316;-62
2022/02/22 12:33:03;;;;;;;10.67;3.00;;;13.30;99.90;;;;;;5114125;28;20234;-63
2022/02/22 12:35:31;;;;;;;7.97;2.70;;;13.40;99.90;;;;;;5114527;28;20206;-63
2022/02/22 12:37:58;;;;;;;11.90;2.93;;;13.50;99.90;;;;;;5113914;28;20210;-65
2022/02/22 12:40:31;;;;;;;7.57;2.40;;;13.60;99.90;;;;;;5113040;28;20200;-62
2022/02/22 12:43:05;;;;;;;9.97;3.00;;;13.90;99.90;;;;;;5113850;28;20276;-63
2022/02/22 12:45:38;;;;;;;12.03;3.20;;;14.00;99.90;;;;;;5113217;28;20698;-65
2022/02/22 12:48:05;;;;;;;11.27;2.80;;;14.10;99.60;;;;;;5114974;28;20649;-65
2022/02/22 12:50:33;;;;;;;9.10;2.80;;;14.20;99.30;;;;;;5113946;28;20227;-63
2022/02/22 12:53:00;;;;;;;13.90;6.93;;;14.10;99.00;;;;;;5113778;28;20224;-65